Time;durP1;ratioP1;P1;durP2;ratioP2;P2;SDS_P1;SDS_P2;PMS_P1;PMS_P2;Temp;Humidity;BMP_temperature;BMP_pressure;BME280_temperature;BME280_humidity;BME280_pressure;Samples;Min_cycle;Max_cycle;Signal;HPM_P1;HPM_P2
2022/11/11 00:02:31;;;;;;;66.10;38.60;;;;;;;;;;5155852;27;20028;-72
2022/11/11 00:05:17;;;;;;;61.63;37.63;;;;;;;;;;5155224;27;20018;-72
2022/11/11 00:08:03;;;;;;;64.78;38.95;;;;;;;;;;5155093;27;20075;-72
2022/11/11 00:10:48;;;;;;;67.63;39.67;;;;;;;;;;5154132;27;20030;-71
2022/11/11 00:13:34;;;;;;;65.53;40.42;;;;;;;;;;5139359;27;20025;-71
2022/11/11 00:16:20;;;;;;;65.95;38.78;;;;;;;;;;5155896;27;20011;-71
2022/11/11 00:25:25;;;;;;;71.95;40.78;;;;;;;;;;5154249;27;20026;-72
2022/11/11 00:28:10;;;;;;;70.40;41.63;;;;;;;;;;5155152;27;20022;-72
2022/11/11 00:31:03;;;;;;;73.85;41.13;;;;;;;;;;5154583;27;20019;-71
2022/11/11 00:33:51;;;;;;;74.82;40.47;;;;;;;;;;5154676;27;20079;-72
2022/11/11 00:36:36;;;;;;;73.35;41.15;;;;;;;;;;5154827;27;20022;-71
2022/11/11 00:39:22;;;;;;;69.72;39.65;;;;;;;;;;5155320;27;20417;-73
2022/11/11 00:42:07;;;;;;;71.32;41.05;;;;;;;;;;5155409;27;20079;-71
2022/11/11 00:44:53;;;;;;;70.82;40.63;;;;;;;;;;5154515;27;20046;-72
2022/11/11 00:50:57;;;;;;;70.82;41.00;;;;;;;;;;5155599;27;20056;-72
2022/11/11 00:53:43;;;;;;;64.90;39.67;;;;;;;;;;5155027;27;20027;-73
2022/11/11 00:56:29;;;;;;;74.10;42.35;;;;;;;;;;5154437;27;20017;-73
2022/11/11 00:59:14;;;;;;;72.32;41.67;;;;;;;;;;5155189;27;20018;-71
2022/11/11 01:02:00;;;;;;;72.90;42.63;;;;;;;;;;5154909;27;20019;-72
2022/11/11 01:04:45;;;;;;;66.85;40.20;;;;;;;;;;5154491;27;20022;-72
2022/11/11 01:07:31;;;;;;;67.57;40.60;;;;;;;;;;5155013;27;20493;-72
2022/11/11 01:10:37;;;;;;;67.45;40.78;;;;;;;;;;5154928;27;20015;-72
2022/11/11 01:13:22;;;;;;;72.20;41.25;;;;;;;;;;5154488;27;20427;-72
2022/11/11 01:16:10;;;;;;;71.30;39.25;;;;;;;;;;5154945;27;20079;-71
2022/11/11 01:18:56;;;;;;;65.15;38.05;;;;;;;;;;5138738;27;20103;-72
2022/11/11 01:21:42;;;;;;;65.95;38.00;;;;;;;;;;5155011;27;20026;-72
2022/11/11 01:24:27;;;;;;;64.57;37.88;;;;;;;;;;5154679;27;20352;-71
2022/11/11 01:27:13;;;;;;;65.93;39.53;;;;;;;;;;5154583;27;20053;-72
2022/11/11 01:29:58;;;;;;;68.72;39.90;;;;;;;;;;5154612;27;20095;-71
2022/11/11 01:32:44;;;;;;;63.08;37.80;;;;;;;;;;5154592;27;20443;-72
2022/11/11 01:35:30;;;;;;;62.63;37.15;;;;;;;;;;5158031;27;20352;-71
2022/11/11 01:38:16;;;;;;;69.78;40.58;;;;;;;;;;5157576;27;20023;-72
2022/11/11 01:41:31;;;;;;;66.60;38.63;;;;;;;;;;5157690;27;20015;-71
2022/11/11 01:44:10;;;;;;;64.95;38.33;;;;;;;;;;5156839;27;20382;-71
2022/11/11 01:47:00;;;;;;;63.08;36.90;;;;;;;;;;5157939;27;20075;-71
2022/11/11 01:49:52;;;;;;;64.25;38.08;;;;;;;;;;5157705;27;20030;-72
2022/11/11 01:52:39;;;;;;;63.92;38.80;;;;;;;;;;5157821;27;20180;-72
2022/11/11 01:55:25;;;;;;;72.40;38.55;;;;;;;;;;5157684;27;20022;-72
2022/11/11 01:58:14;;;;;;;66.53;37.80;;;;;;;;;;5157623;27;20014;-71
2022/11/11 02:01:00;;;;;;;61.47;37.58;;;;;;;;;;5157129;27;20034;-71
2022/11/11 02:06:53;;;;;;;67.10;37.22;;;;;;;;;;5157849;27;20094;-72
2022/11/11 02:09:41;;;;;;;69.50;38.30;;;;;;;;;;5127782;27;20087;-71
2022/11/11 02:15:31;;;;;;;65.18;37.60;;;;;;;;;;5157265;27;20356;-71
2022/11/11 02:18:17;;;;;;;63.78;37.10;;;;;;;;;;5156465;27;20018;-70
2022/11/11 02:21:02;;;;;;;68.78;37.58;;;;;;;;;;5157561;27;20019;-71
2022/11/11 02:23:54;;;;;;;61.70;36.70;;;;;;;;;;5157375;27;20015;-71
2022/11/11 02:26:42;;;;;;;58.95;36.03;;;;;;;;;;5141214;27;20455;-71
2022/11/11 02:29:29;;;;;;;62.08;36.45;;;;;;;;;;5127610;27;20393;-71
2022/11/11 02:32:15;;;;;;;64.90;36.97;;;;;;;;;;5156369;27;20034;-72
2022/11/11 02:35:00;;;;;;;64.65;38.88;;;;;;;;;;5151825;27;20018;-71
2022/11/11 02:37:48;;;;;;;61.60;36.30;;;;;;;;;;5149819;27;20026;-71
2022/11/11 02:40:35;;;;;;;63.00;36.10;;;;;;;;;;5156361;27;20051;-72
2022/11/11 02:43:21;;;;;;;55.78;35.10;;;;;;;;;;5156395;27;20026;-71
2022/11/11 02:46:07;;;;;;;66.57;37.30;;;;;;;;;;5155561;27;20082;-71
2022/11/11 02:48:52;;;;;;;65.32;37.35;;;;;;;;;;5156772;27;20060;-71
2022/11/11 02:51:38;;;;;;;63.00;37.28;;;;;;;;;;5157090;27;20521;-72
2022/11/11 02:54:23;;;;;;;57.80;35.47;;;;;;;;;;5156433;27;20113;-71
2022/11/11 02:57:09;;;;;;;65.15;38.13;;;;;;;;;;5156348;27;20349;-71
2022/11/11 02:59:57;;;;;;;61.88;37.50;;;;;;;;;;5141013;27;20417;-72
2022/11/11 03:02:42;;;;;;;66.13;37.15;;;;;;;;;;5155796;27;20054;-71
2022/11/11 03:05:28;;;;;;;64.97;37.20;;;;;;;;;;5141026;27;20432;-72
2022/11/11 03:08:14;;;;;;;63.78;37.45;;;;;;;;;;5156595;27;20424;-72
2022/11/11 03:10:59;;;;;;;66.47;36.40;;;;;;;;;;5156560;27;20033;-70
2022/11/11 03:13:45;;;;;;;61.58;36.08;;;;;;;;;;5156263;27;20015;-72
2022/11/11 03:19:34;;;;;;;61.15;36.13;;;;;;;;;;5156089;27;20015;-72
2022/11/11 03:22:20;;;;;;;65.15;37.28;;;;;;;;;;5156249;27;20505;-71
2022/11/11 03:28:11;;;;;;;63.35;38.58;;;;;;;;;;5155876;27;20011;-70
2022/11/11 03:30:58;;;;;;;65.97;38.20;;;;;;;;;;5155295;27;20022;-72
2022/11/11 03:33:44;;;;;;;58.25;34.92;;;;;;;;;;5155818;27;20023;-71
2022/11/11 03:38:14;;;;;;;59.97;38.13;;;;;;;;;;5154337;27;20029;-71
2022/11/11 03:39:35;;;;;;;67.82;39.08;;;;;;;;;;5155812;27;20018;-71
2022/11/11 03:42:20;;;;;;;63.55;37.67;;;;;;;;;;5155314;27;20019;-71
2022/11/11 03:45:06;;;;;;;62.22;37.85;;;;;;;;;;5155392;27;20046;-72
2022/11/11 03:47:53;;;;;;;61.20;36.67;;;;;;;;;;5140564;27;20046;-71
2022/11/11 03:50:39;;;;;;;65.18;37.20;;;;;;;;;;5155245;27;20023;-72
2022/11/11 03:53:24;;;;;;;68.93;38.10;;;;;;;;;;5141310;27;20022;-73
2022/11/11 03:56:10;;;;;;;67.93;40.03;;;;;;;;;;5155135;27;20046;-71
2022/11/11 03:58:56;;;;;;;62.63;38.30;;;;;;;;;;5155433;27;20097;-72
2022/11/11 04:10:54;;;;;;;66.47;37.95;;;;;;;;;;5155855;27;20023;-71
2022/11/11 04:16:46;;;;;;;63.47;39.55;;;;;;;;;;5155548;27;20048;-72
2022/11/11 04:22:40;;;;;;;64.85;37.60;;;;;;;;;;5154949;27;20019;-72
2022/11/11 04:31:34;;;;;;;72.20;41.55;;;;;;;;;;5155485;27;20014;-72
2022/11/11 04:34:20;;;;;;;68.53;40.33;;;;;;;;;;5154385;27;20018;-71
2022/11/11 04:37:05;;;;;;;64.05;40.40;;;;;;;;;;5155068;27;20049;-71
2022/11/11 04:42:55;;;;;;;66.20;38.90;;;;;;;;;;5154893;27;20075;-71
2022/11/11 04:45:41;;;;;;;65.75;38.20;;;;;;;;;;5154275;27;20043;-71
2022/11/11 04:48:26;;;;;;;65.05;36.97;;;;;;;;;;5154705;27;20015;-71
2022/11/11 04:51:12;;;;;;;64.30;39.20;;;;;;;;;;5155074;27;20023;-71
2022/11/11 04:53:58;;;;;;;63.78;38.53;;;;;;;;;;5154929;27;20062;-71
2022/11/11 04:56:49;;;;;;;69.10;38.13;;;;;;;;;;5153765;27;20050;-71
2022/11/11 04:59:35;;;;;;;65.65;38.42;;;;;;;;;;5140330;27;20102;-71
2022/11/11 05:05:25;;;;;;;71.18;41.05;;;;;;;;;;5155180;27;20052;-70
2022/11/11 05:11:15;;;;;;;69.65;40.28;;;;;;;;;;5158877;27;20026;-70
2022/11/11 05:23:16;;;;;;;71.88;41.25;;;;;;;;;;5158212;27;20389;-70
2022/11/11 05:26:01;;;;;;;67.43;39.80;;;;;;;;;;5158593;27;20033;-70
2022/11/11 05:28:47;;;;;;;70.38;40.75;;;;;;;;;;5157831;27;20014;-71
2022/11/11 05:31:32;;;;;;;71.10;40.85;;;;;;;;;;5142310;27;20091;-71
2022/11/11 05:34:18;;;;;;;73.30;41.05;;;;;;;;;;5158656;27;20433;-72
2022/11/11 05:37:03;;;;;;;72.68;40.50;;;;;;;;;;5158162;27;20027;-72
2022/11/11 05:39:49;;;;;;;75.07;42.47;;;;;;;;;;5157098;27;20019;-72
2022/11/11 05:42:35;;;;;;;77.32;41.47;;;;;;;;;;5156800;27;20025;-71
2022/11/11 05:45:20;;;;;;;73.15;40.45;;;;;;;;;;5157633;27;20066;-71
2022/11/11 05:48:06;;;;;;;77.88;42.75;;;;;;;;;;5157774;27;20019;-71
2022/11/11 05:50:51;;;;;;;72.53;41.75;;;;;;;;;;5158397;27;20046;-72
2022/11/11 05:53:37;;;;;;;73.53;43.10;;;;;;;;;;5157059;27;20033;-70
2022/11/11 05:56:22;;;;;;;80.72;42.25;;;;;;;;;;5156913;27;20011;-71
2022/11/11 05:59:08;;;;;;;79.10;45.00;;;;;;;;;;5156894;27;20034;-70
2022/11/11 06:01:54;;;;;;;74.45;44.30;;;;;;;;;;5157109;27;20424;-71
2022/11/11 06:04:40;;;;;;;83.28;43.72;;;;;;;;;;5157054;27;20026;-72
2022/11/11 06:07:25;;;;;;;78.18;45.42;;;;;;;;;;5157197;27;20467;-71
2022/11/11 06:10:29;;;;;;;74.03;43.58;;;;;;;;;;5158039;27;20062;-70
2022/11/11 06:13:14;;;;;;;81.47;44.03;;;;;;;;;;5157543;27;20031;-71
2022/11/11 06:16:00;;;;;;;78.45;44.28;;;;;;;;;;5157664;27;20067;-71
2022/11/11 06:18:46;;;;;;;84.68;46.10;;;;;;;;;;5142375;27;20050;-71
2022/11/11 06:21:55;;;;;;;78.15;45.55;;;;;;;;;;5157209;27;20338;-71
2022/11/11 06:24:37;;;;;;;83.93;45.38;;;;;;;;;;5157410;27;20019;-71
2022/11/11 06:27:22;;;;;;;81.38;43.78;;;;;;;;;;5157449;27;20106;-71
2022/11/11 06:30:08;;;;;;;83.53;45.85;;;;;;;;;;5156934;27;20456;-73
2022/11/11 06:32:54;;;;;;;80.25;45.83;;;;;;;;;;5156192;27;20117;-71
2022/11/11 06:35:42;;;;;;;77.72;44.65;;;;;;;;;;5157035;27;20083;-72
2022/11/11 06:38:28;;;;;;;90.10;44.88;;;;;;;;;;5156374;27;20068;-71
2022/11/11 06:41:14;;;;;;;86.22;46.38;;;;;;;;;;5157371;27;20425;-71
2022/11/11 06:44:00;;;;;;;85.63;47.00;;;;;;;;;;5156971;27;20036;-71
2022/11/11 06:46:45;;;;;;;96.15;48.90;;;;;;;;;;5156601;27;20030;-72
2022/11/11 06:49:31;;;;;;;90.47;49.33;;;;;;;;;;5156937;27;20034;-71
2022/11/11 06:52:17;;;;;;;89.55;50.13;;;;;;;;;;5157191;27;20037;-72
2022/11/11 06:55:04;;;;;;;94.82;49.40;;;;;;;;;;5157123;27;20058;-72
2022/11/11 06:57:50;;;;;;;95.80;51.03;;;;;;;;;;5155827;27;20014;-71
2022/11/11 07:00:35;;;;;;;93.40;49.25;;;;;;;;;;5156673;27;20011;-72
2022/11/11 07:03:21;;;;;;;102.45;51.58;;;;;;;;;;5156192;27;20027;-72
2022/11/11 07:06:07;;;;;;;103.97;53.38;;;;;;;;;;5157364;27;20019;-72
2022/11/11 07:08:52;;;;;;;88.03;51.08;;;;;;;;;;5156828;27;20049;-72
2022/11/11 07:11:38;;;;;;;101.57;53.22;;;;;;;;;;5155959;27;20029;-71
2022/11/11 07:14:23;;;;;;;95.63;52.80;;;;;;;;;;5156374;27;20023;-72
2022/11/11 07:17:09;;;;;;;93.88;51.70;;;;;;;;;;5155677;27;20056;-71
2022/11/11 07:19:55;;;;;;;100.78;54.88;;;;;;;;;;5154746;27;20033;-72
2022/11/11 07:22:40;;;;;;;101.97;52.08;;;;;;;;;;5156830;27;20023;-72
2022/11/11 07:25:26;;;;;;;99.15;54.00;;;;;;;;;;5141738;27;20326;-71
2022/11/11 07:28:12;;;;;;;94.85;50.60;;;;;;;;;;5155719;27;20414;-71
2022/11/11 07:30:57;;;;;;;96.95;54.08;;;;;;;;;;5155840;27;20018;-71
2022/11/11 07:33:43;;;;;;;93.95;52.28;;;;;;;;;;5156033;27;20022;-72
2022/11/11 07:36:29;;;;;;;96.32;51.55;;;;;;;;;;5155376;27;20018;-72
2022/11/11 07:39:14;;;;;;;95.78;52.47;;;;;;;;;;5155779;27;20443;-70
2022/11/11 07:42:00;;;;;;;92.07;50.78;;;;;;;;;;5156373;27;20026;-71
2022/11/11 07:44:45;;;;;;;95.65;53.92;;;;;;;;;;5139937;27;20047;-71
2022/11/11 07:47:33;;;;;;;95.25;53.72;;;;;;;;;;5114187;28;20031;-71
2022/11/11 07:50:18;;;;;;;98.53;53.92;;;;;;;;;;5113328;28;20015;-71
2022/11/11 07:53:04;;;;;;;102.40;55.25;;;;;;;;;;5114772;28;20028;-71
2022/11/11 07:55:50;;;;;;;98.63;53.53;;;;;;;;;;5114804;28;20012;-72
2022/11/11 07:58:35;;;;;;;93.75;52.67;;;;;;;;;;5114112;28;20016;-71
2022/11/11 08:01:21;;;;;;;93.57;54.10;;;;;;;;;;5113550;28;20026;-70
2022/11/11 08:04:06;;;;;;;101.68;55.22;;;;;;;;;;5114427;28;20015;-72
2022/11/11 08:06:52;;;;;;;98.20;53.17;;;;;;;;;;5114084;28;20036;-70
2022/11/11 08:09:38;;;;;;;93.22;52.25;;;;;;;;;;5114764;28;20023;-71
2022/11/11 08:15:27;;;;;;;98.78;51.70;;;;;;;;;;5113602;28;20030;-71
2022/11/11 08:18:13;;;;;;;91.30;49.15;;;;;;;;;;5113089;28;20015;-71
2022/11/11 08:20:58;;;;;;;80.35;47.30;;;;;;;;;;5112917;28;20020;-71
2022/11/11 08:23:44;;;;;;;80.45;45.55;;;;;;;;;;5114200;28;20016;-71
2022/11/11 08:26:30;;;;;;;89.43;48.33;;;;;;;;;;5113785;28;20034;-70
2022/11/11 08:29:15;;;;;;;90.60;47.67;;;;;;;;;;5114046;28;20027;-71
2022/11/11 08:32:01;;;;;;;79.55;45.65;;;;;;;;;;5114191;28;20027;-72
2022/11/11 08:34:47;;;;;;;89.07;46.67;;;;;;;;;;5098135;28;20507;-71
2022/11/11 08:37:32;;;;;;;83.10;45.15;;;;;;;;;;5113147;28;20051;-71
2022/11/11 08:40:18;;;;;;;76.90;42.63;;;;;;;;;;5099593;28;20031;-71
2022/11/11 08:43:04;;;;;;;77.18;43.55;;;;;;;;;;5114995;28;20030;-72
2022/11/11 08:45:51;;;;;;;78.78;43.95;;;;;;;;;;5133937;27;20062;-72
2022/11/11 08:48:37;;;;;;;78.60;44.92;;;;;;;;;;5122847;27;20022;-71
2022/11/11 08:51:22;;;;;;;80.13;43.47;;;;;;;;;;5124115;27;20118;-70
2022/11/11 08:54:08;;;;;;;79.43;43.58;;;;;;;;;;5124296;27;20019;-72
2022/11/11 08:56:54;;;;;;;70.57;41.72;;;;;;;;;;5137605;27;20447;-71
2022/11/11 08:59:40;;;;;;;73.35;41.13;;;;;;;;;;5137212;27;20027;-72
2022/11/11 09:02:25;;;;;;;69.75;39.88;;;;;;;;;;5123732;27;20098;-71
2022/11/11 09:05:11;;;;;;;77.15;42.20;;;;;;;;;;5138943;27;20015;-71
2022/11/11 09:08:00;;;;;;;74.70;42.78;;;;;;;;;;5138580;27;20033;-71
2022/11/11 09:10:45;;;;;;;77.15;42.15;;;;;;;;;;5137714;27;20019;-71
2022/11/11 09:13:31;;;;;;;77.13;43.72;;;;;;;;;;5137287;27;20019;-72
2022/11/11 09:16:16;;;;;;;82.30;44.28;;;;;;;;;;5137127;27;20019;-70
2022/11/11 09:19:02;;;;;;;103.47;55.08;;;;;;;;;;5138408;27;20456;-71
2022/11/11 09:21:49;;;;;;;96.63;51.95;;;;;;;;;;5138043;27;20030;-70
2022/11/11 09:24:35;;;;;;;101.45;54.42;;;;;;;;;;5137602;27;20104;-70
2022/11/11 09:27:21;;;;;;;82.97;47.20;;;;;;;;;;5137172;27;20391;-70
2022/11/11 09:30:07;;;;;;;84.30;47.03;;;;;;;;;;5136893;27;20103;-71
2022/11/11 09:32:53;;;;;;;76.38;43.45;;;;;;;;;;5136970;27;20023;-71
2022/11/11 09:35:39;;;;;;;82.78;43.92;;;;;;;;;;5136674;27;20011;-71
2022/11/11 09:38:24;;;;;;;68.93;41.63;;;;;;;;;;5137178;27;20047;-71
2022/11/11 09:41:10;;;;;;;69.68;40.08;;;;;;;;;;5137493;27;20044;-71
2022/11/11 09:43:58;;;;;;;63.72;37.47;;;;;;;;;;5137742;27;20349;-71
2022/11/11 09:46:56;;;;;;;64.65;38.40;;;;;;;;;;5136353;27;20118;-71
2022/11/11 09:49:45;;;;;;;64.57;37.53;;;;;;;;;;5136648;27;20023;-71
2022/11/11 09:52:33;;;;;;;70.40;39.28;;;;;;;;;;5138129;27;20015;-73
2022/11/11 09:55:18;;;;;;;73.50;41.47;;;;;;;;;;5135446;27;20019;-71
2022/11/11 09:58:17;;;;;;;70.85;39.97;;;;;;;;;;5136427;27;20030;-71
2022/11/11 10:01:20;;;;;;;67.32;38.08;;;;;;;;;;5136838;27;20327;-70
2022/11/11 10:04:18;;;;;;;63.25;36.92;;;;;;;;;;5136059;27;20019;-73
2022/11/11 10:07:08;;;;;;;70.80;39.38;;;;;;;;;;5136084;27;20019;-69
2022/11/11 10:10:01;;;;;;;63.08;36.40;;;;;;;;;;5136414;27;20011;-71
2022/11/11 10:12:51;;;;;;;61.35;37.22;;;;;;;;;;5136361;27;20060;-70
2022/11/11 10:15:40;;;;;;;58.53;33.35;;;;;;;;;;5122372;27;20019;-71
2022/11/11 10:18:28;;;;;;;58.78;34.80;;;;;;;;;;5136200;27;20359;-71
2022/11/11 10:21:14;;;;;;;55.00;30.67;;;;;;;;;;5136408;27;20011;-70
2022/11/11 10:24:00;;;;;;;42.78;26.92;;;;;;;;;;5136121;27;20102;-72
2022/11/11 10:26:47;;;;;;;43.72;26.17;;;;;;;;;;5121504;27;20377;-70
2022/11/11 10:29:43;;;;;;;34.25;20.38;;;;;;;;;;5136511;27;20091;-70
2022/11/11 10:32:32;;;;;;;28.58;17.70;;;;;;;;;;5135817;27;20034;-71
2022/11/11 10:35:23;;;;;;;23.23;15.23;;;;;;;;;;5121654;27;20023;-70
2022/11/11 10:38:08;;;;;;;23.15;14.45;;;;;;;;;;5135620;27;20015;-72
2022/11/11 10:40:56;;;;;;;22.88;13.73;;;;;;;;;;5136420;27;20336;-71
2022/11/11 10:43:43;;;;;;;17.35;11.52;;;;;;;;;;5135794;27;20476;-71
2022/11/11 10:46:33;;;;;;;18.35;11.15;;;;;;;;;;5136179;27;20047;-70
2022/11/11 10:49:20;;;;;;;15.90;10.32;;;;;;;;;;5135577;27;20048;-70
2022/11/11 10:52:09;;;;;;;12.93;9.05;;;;;;;;;;5135502;27;20456;-71
2022/11/11 10:54:54;;;;;;;13.55;8.77;;;;;;;;;;5136439;27;20023;-71
2022/11/11 10:57:45;;;;;;;8.40;6.40;;;;;;;;;;5136177;27;20019;-71
2022/11/11 11:00:32;;;;;;;11.82;6.70;;;;;;;;;;5136373;27;20015;-70
2022/11/11 11:03:32;;;;;;;8.55;5.95;;;;;;;;;;5136716;27;20122;-71
2022/11/11 11:06:25;;;;;;;8.63;5.78;;;;;;;;;;5135358;27;20019;-70
2022/11/11 11:09:17;;;;;;;7.57;5.40;;;;;;;;;;5136176;27;20015;-70
2022/11/11 11:12:06;;;;;;;8.68;6.30;;;;;;;;;;5136243;27;20019;-70
2022/11/11 11:14:57;;;;;;;9.88;6.80;;;;;;;;;;5136613;27;20377;-71
2022/11/11 11:17:55;;;;;;;10.38;7.25;;;;;;;;;;5121585;27;20094;-71
2022/11/11 11:20:56;;;;;;;10.20;7.05;;;;;;;;;;5121817;27;20392;-70
2022/11/11 11:23:42;;;;;;;10.65;7.07;;;;;;;;;;5135585;27;20092;-70
2022/11/11 11:26:41;;;;;;;10.65;7.72;;;;;;;;;;5135824;27;20043;-71
2022/11/11 11:29:29;;;;;;;9.52;6.70;;;;;;;;;;5134673;27;20038;-70
2022/11/11 11:32:26;;;;;;;10.68;7.20;;;;;;;;;;5136469;27;20453;-70
2022/11/11 11:35:29;;;;;;;8.30;5.93;;;;;;;;;;5135542;27;20046;-70
2022/11/11 11:38:46;;;;;;;9.38;5.03;;;;;;;;;;5112637;27;20787;-70
2022/11/11 11:41:36;;;;;;;8.57;5.13;;;;;;;;;;5111531;28;20040;-70
2022/11/11 11:44:27;;;;;;;12.30;5.80;;;;;;;;;;5124371;28;20019;-69
2022/11/11 11:47:21;;;;;;;8.02;5.68;;;;;;;;;;5131553;28;20019;-70
2022/11/11 11:50:36;;;;;;;10.73;5.78;;;;;;;;;;5118805;27;20019;-71
2022/11/11 11:53:41;;;;;;;8.77;5.88;;;;;;;;;;5128156;28;20024;-70
2022/11/11 11:56:38;;;;;;;8.68;6.50;;;;;;;;;;5131219;28;20411;-71
2022/11/11 11:59:41;;;;;;;8.32;6.10;;;;;;;;;;5133270;27;20479;-71
2022/11/11 12:02:26;;;;;;;11.98;7.07;;;;;;;;;;5118999;27;20099;-70
2022/11/11 12:05:12;;;;;;;11.27;7.45;;;;;;;;;;5131520;28;20046;-71
2022/11/11 12:08:04;;;;;;;11.95;7.47;;;;;;;;;;5132442;27;20039;-71
2022/11/11 12:10:58;;;;;;;9.45;6.72;;;;;;;;;;5133009;28;20015;-71
2022/11/11 12:14:05;;;;;;;12.98;7.95;;;;;;;;;;5131924;28;20019;-71
2022/11/11 12:16:54;;;;;;;10.65;7.55;;;;;;;;;;5131910;28;20030;-72
2022/11/11 12:19:46;;;;;;;13.55;8.38;;;;;;;;;;5116776;28;20026;-71
2022/11/11 12:22:46;;;;;;;15.75;10.27;;;;;;;;;;5132645;28;20026;-70
2022/11/11 12:25:38;;;;;;;12.73;8.35;;;;;;;;;;5132026;28;20016;-70
2022/11/11 12:28:23;;;;;;;12.45;8.27;;;;;;;;;;5130772;28;20447;-69
2022/11/11 12:31:29;;;;;;;14.30;8.82;;;;;;;;;;5132118;28;20034;-72
2022/11/11 12:34:24;;;;;;;14.93;8.50;;;;;;;;;;5130238;28;20041;-72
2022/11/11 12:37:12;;;;;;;12.43;8.93;;;;;;;;;;5131614;28;20478;-74
2022/11/11 12:39:57;;;;;;;14.65;10.65;;;;;;;;;;5118729;27;20015;-75
2022/11/11 12:42:46;;;;;;;17.42;11.70;;;;;;;;;;5131788;28;20356;-74
2022/11/11 12:45:32;;;;;;;16.13;10.48;;;;;;;;;;5116694;28;20030;-73
2022/11/11 12:48:17;;;;;;;19.20;10.90;;;;;;;;;;5125533;28;20091;-74
2022/11/11 12:51:06;;;;;;;12.95;9.05;;;;;;;;;;5102099;28;20036;-73
2022/11/11 12:54:00;;;;;;;13.75;8.48;;;;;;;;;;5116664;28;20031;-71
2022/11/11 12:57:10;;;;;;;14.98;9.05;;;;;;;;;;5116068;28;20137;-70
2022/11/11 13:00:01;;;;;;;12.65;8.95;;;;;;;;;;5116647;28;20047;-71
2022/11/11 13:03:02;;;;;;;13.70;8.40;;;;;;;;;;5103170;28;20040;-70
2022/11/11 13:06:02;;;;;;;11.05;8.05;;;;;;;;;;5114920;28;20023;-71
2022/11/11 13:08:48;;;;;;;12.10;8.70;;;;;;;;;;5116557;28;20036;-70
2022/11/11 13:11:33;;;;;;;15.05;8.75;;;;;;;;;;5115346;28;20085;-69
2022/11/11 13:14:27;;;;;;;15.80;8.73;;;;;;;;;;5115637;28;20049;-70
2022/11/11 13:17:13;;;;;;;11.93;8.60;;;;;;;;;;5115988;28;20107;-70
2022/11/11 13:20:11;;;;;;;13.48;8.88;;;;;;;;;;5102912;27;20027;-71
2022/11/11 13:22:56;;;;;;;15.95;8.77;;;;;;;;;;5116480;28;20466;-69
2022/11/11 13:25:47;;;;;;;12.27;8.45;;;;;;;;;;5117129;27;20026;-71
2022/11/11 13:28:33;;;;;;;14.38;8.90;;;;;;;;;;5115995;28;20020;-70
2022/11/11 13:31:44;;;;;;;14.48;9.57;;;;;;;;;;5117221;27;20081;-70
2022/11/11 13:34:33;;;;;;;15.15;8.85;;;;;;;;;;5115848;28;20028;-70
2022/11/11 13:37:21;;;;;;;14.60;9.00;;;;;;;;;;5115787;28;20185;-71
2022/11/11 13:40:08;;;;;;;15.77;8.50;;;;;;;;;;5115361;28;20020;-70
2022/11/11 13:42:54;;;;;;;12.27;8.82;;;;;;;;;;5115468;28;20081;-70
2022/11/11 13:45:41;;;;;;;11.15;8.15;;;;;;;;;;5114746;28;20085;-70
2022/11/11 13:48:28;;;;;;;13.25;8.20;;;;;;;;;;5115919;28;20093;-71
2022/11/11 13:51:33;;;;;;;11.50;8.20;;;;;;;;;;5101007;28;20088;-70
2022/11/11 13:54:20;;;;;;;11.57;7.63;;;;;;;;;;5114668;28;20020;-70
2022/11/11 13:57:08;;;;;;;11.55;7.32;;;;;;;;;;5116694;27;20435;-71
2022/11/11 13:59:59;;;;;;;11.85;7.63;;;;;;;;;;5115022;28;20343;-71
2022/11/11 14:02:45;;;;;;;11.95;7.70;;;;;;;;;;5115064;28;20055;-70
2022/11/11 14:05:30;;;;;;;13.10;8.18;;;;;;;;;;5116351;28;20447;-71
2022/11/11 14:08:49;;;;;;;13.40;9.13;;;;;;;;;;5115500;28;20116;-70
2022/11/11 14:11:34;;;;;;;15.55;9.20;;;;;;;;;;5083349;28;20031;-71
2022/11/11 14:14:35;;;;;;;14.43;8.95;;;;;;;;;;5115214;28;20028;-74
2022/11/11 14:17:21;;;;;;;14.73;8.82;;;;;;;;;;5114916;28;20394;-70
2022/11/11 14:20:26;;;;;;;13.55;8.90;;;;;;;;;;5115951;28;20015;-71
2022/11/11 14:23:17;;;;;;;14.32;8.48;;;;;;;;;;5114232;28;20015;-70
2022/11/11 14:26:05;;;;;;;17.05;9.68;;;;;;;;;;5114910;28;20031;-69
2022/11/11 14:28:53;;;;;;;18.63;9.35;;;;;;;;;;5115718;27;20440;-70
2022/11/11 14:31:46;;;;;;;16.83;9.82;;;;;;;;;;5100492;28;20100;-70
2022/11/11 14:34:39;;;;;;;16.83;9.85;;;;;;;;;;5113372;28;20091;-69
2022/11/11 14:37:27;;;;;;;19.50;11.32;;;;;;;;;;5114669;28;20579;-71
2022/11/11 14:40:23;;;;;;;18.77;11.55;;;;;;;;;;5099560;28;20515;-69
2022/11/11 14:43:27;;;;;;;21.08;12.10;;;;;;;;;;5114540;28;20016;-70
2022/11/11 14:46:12;;;;;;;22.08;12.85;;;;;;;;;;5114591;28;20034;-72
2022/11/11 14:48:59;;;;;;;24.73;13.48;;;;;;;;;;5099480;28;20016;-71
2022/11/11 14:51:47;;;;;;;21.65;12.50;;;;;;;;;;5115076;28;20023;-71
2022/11/11 14:54:53;;;;;;;20.98;12.50;;;;;;;;;;5114337;28;20436;-71
2022/11/11 14:57:41;;;;;;;20.08;11.57;;;;;;;;;;5101127;28;20114;-72
2022/11/11 15:00:29;;;;;;;22.40;12.85;;;;;;;;;;5114033;28;20077;-71
2022/11/11 15:03:19;;;;;;;22.73;14.20;;;;;;;;;;5114797;28;20016;-70
2022/11/11 15:06:05;;;;;;;20.60;12.40;;;;;;;;;;5098977;28;20438;-72
2022/11/11 15:09:00;;;;;;;27.58;14.18;;;;;;;;;;5114371;28;20099;-73
2022/11/11 15:12:04;;;;;;;21.27;13.82;;;;;;;;;;5113987;28;20020;-72
2022/11/11 15:14:56;;;;;;;25.13;14.70;;;;;;;;;;5099523;28;20019;-73
2022/11/11 15:17:55;;;;;;;19.98;13.20;;;;;;;;;;5098833;28;20039;-76
2022/11/11 15:20:43;;;;;;;21.75;14.77;;;;;;;;;;5115926;28;20008;-73
2022/11/11 15:24:01;;;;;;;20.83;13.07;;;;;;;;;;5115980;28;20077;-72
2022/11/11 15:26:55;;;;;;;26.65;14.63;;;;;;;;;;5067026;28;20028;-73
2022/11/11 15:29:41;;;;;;;19.75;12.95;;;;;;;;;;5099136;28;20110;-74
2022/11/11 15:32:35;;;;;;;21.55;14.20;;;;;;;;;;5099151;28;20035;-72
2022/11/11 15:35:39;;;;;;;23.35;13.55;;;;;;;;;;5113609;28;20035;-73
2022/11/11 15:38:25;;;;;;;19.50;13.52;;;;;;;;;;5099160;28;20134;-73
2022/11/11 15:41:24;;;;;;;21.30;14.50;;;;;;;;;;5113870;28;20026;-73
2022/11/11 15:44:18;;;;;;;22.45;13.65;;;;;;;;;;5113734;28;20024;-73
2022/11/11 15:47:04;;;;;;;26.02;15.40;;;;;;;;;;5113406;28;20066;-70
2022/11/11 15:49:50;;;;;;;30.77;19.33;;;;;;;;;;5113158;28;20016;-71
2022/11/11 15:52:36;;;;;;;29.80;18.38;;;;;;;;;;5114027;28;20082;-72
2022/11/11 15:55:21;;;;;;;35.45;21.15;;;;;;;;;;5115187;28;20055;-72
2022/11/11 15:58:11;;;;;;;33.10;20.23;;;;;;;;;;5114130;28;20356;-73
2022/11/11 16:00:57;;;;;;;34.42;21.67;;;;;;;;;;5114884;28;20016;-71
2022/11/11 16:03:43;;;;;;;35.50;22.92;;;;;;;;;;5114321;28;20348;-74
2022/11/11 16:06:29;;;;;;;37.05;22.40;;;;;;;;;;5114207;28;20028;-73
2022/11/11 16:09:18;;;;;;;29.33;19.77;;;;;;;;;;5113432;28;20496;-73
2022/11/11 16:12:03;;;;;;;29.90;20.05;;;;;;;;;;5098454;28;20053;-73
2022/11/11 16:14:51;;;;;;;32.38;19.77;;;;;;;;;;5113159;28;20012;-73
2022/11/11 16:17:40;;;;;;;28.38;18.98;;;;;;;;;;5113126;28;20058;-73
2022/11/11 16:20:38;;;;;;;29.02;17.27;;;;;;;;;;5113255;28;20019;-73
2022/11/11 16:23:24;;;;;;;23.55;16.10;;;;;;;;;;5113089;28;20065;-72
2022/11/11 16:26:10;;;;;;;21.85;15.98;;;;;;;;;;5117271;28;20476;-73
2022/11/11 16:28:56;;;;;;;21.17;14.88;;;;;;;;;;5117263;28;20073;-73
2022/11/11 16:31:43;;;;;;;22.80;15.40;;;;;;;;;;5116606;28;20015;-73
2022/11/11 16:34:28;;;;;;;24.65;16.10;;;;;;;;;;5102879;28;20019;-73
2022/11/11 16:37:15;;;;;;;24.75;17.30;;;;;;;;;;5116722;28;20040;-72
2022/11/11 16:40:19;;;;;;;34.20;24.45;;;;;;;;;;5117397;28;20027;-74
2022/11/11 16:43:16;;;;;;;32.80;22.70;;;;;;;;;;5116838;28;20096;-74
2022/11/11 16:46:07;;;;;;;31.65;22.88;;;;;;;;;;5102557;28;20027;-72
2022/11/11 16:48:52;;;;;;;23.50;16.67;;;;;;;;;;5116295;28;20511;-74
2022/11/11 16:51:38;;;;;;;23.17;15.38;;;;;;;;;;5116729;28;20012;-74
2022/11/11 16:54:26;;;;;;;18.95;12.95;;;;;;;;;;5116002;28;20351;-73
2022/11/11 16:57:15;;;;;;;17.10;12.38;;;;;;;;;;5101904;28;20027;-73
2022/11/11 17:00:02;;;;;;;19.75;13.57;;;;;;;;;;5117346;28;20091;-73
2022/11/11 17:03:06;;;;;;;20.30;12.95;;;;;;;;;;5116238;28;20098;-73
2022/11/11 17:05:51;;;;;;;18.90;13.57;;;;;;;;;;5115802;28;20471;-74
2022/11/11 17:08:41;;;;;;;21.35;14.18;;;;;;;;;;5101425;28;20023;-74
2022/11/11 17:11:38;;;;;;;18.80;13.48;;;;;;;;;;5116395;28;20448;-73
2022/11/11 17:14:25;;;;;;;19.08;13.77;;;;;;;;;;5116477;28;20035;-73
2022/11/11 17:17:10;;;;;;;19.58;12.77;;;;;;;;;;5101506;28;20372;-74
2022/11/11 17:19:57;;;;;;;20.42;12.77;;;;;;;;;;5101426;28;20103;-73
2022/11/11 17:22:52;;;;;;;17.75;12.13;;;;;;;;;;5115483;28;20050;-73
2022/11/11 17:25:38;;;;;;;19.13;13.10;;;;;;;;;;5101852;28;20097;-74
2022/11/11 17:28:24;;;;;;;19.02;12.88;;;;;;;;;;5102433;28;20023;-73
2022/11/11 17:31:10;;;;;;;18.83;12.88;;;;;;;;;;5116640;28;20062;-74
2022/11/11 17:33:56;;;;;;;22.50;13.40;;;;;;;;;;5115927;28;20023;-74